sensor_id;sensor_type;location;lat;lon;timestamp;P1;durP1;ratioP1;P2;durP2;ratioP2
85093;SDS011;75432;49.056;12.004;2024-03-22T00:00:55;32.70;;;17.05;;
85093;SDS011;75432;49.056;12.004;2024-03-22T00:03:21;26.58;;;14.77;;
85093;SDS011;75432;49.056;12.004;2024-03-22T00:05:47;22.92;;;12.35;;
85093;SDS011;75432;49.056;12.004;2024-03-22T00:08:13;30.38;;;15.43;;
85093;SDS011;75432;49.056;12.004;2024-03-22T00:10:38;28.25;;;14.73;;
85093;SDS011;75432;49.056;12.004;2024-03-22T00:13:04;28.92;;;14.90;;
85093;SDS011;75432;49.056;12.004;2024-03-22T00:15:29;29.33;;;14.85;;
85093;SDS011;75432;49.056;12.004;2024-03-22T00:17:55;24.95;;;13.77;;
85093;SDS011;75432;49.056;12.004;2024-03-22T00:20:20;31.58;;;16.20;;
85093;SDS011;75432;49.056;12.004;2024-03-22T00:22:46;30.90;;;16.05;;
85093;SDS011;75432;49.056;12.004;2024-03-22T00:25:11;31.48;;;15.95;;
85093;SDS011;75432;49.056;12.004;2024-03-22T00:27:37;29.10;;;15.68;;
85093;SDS011;75432;49.056;12.004;2024-03-22T00:30:03;25.88;;;14.52;;
85093;SDS011;75432;49.056;12.004;2024-03-22T00:32:29;30.30;;;16.17;;
85093;SDS011;75432;49.056;12.004;2024-03-22T00:34:55;29.88;;;16.08;;
85093;SDS011;75432;49.056;12.004;2024-03-22T00:37:20;33.00;;;16.75;;
85093;SDS011;75432;49.056;12.004;2024-03-22T00:39:46;32.30;;;16.20;;
85093;SDS011;75432;49.056;12.004;2024-03-22T00:42:11;30.30;;;15.90;;
85093;SDS011;75432;49.056;12.004;2024-03-22T00:44:37;31.67;;;16.80;;
85093;SDS011;75432;49.056;12.004;2024-03-22T00:47:02;28.90;;;15.47;;
85093;SDS011;75432;49.056;12.004;2024-03-22T00:49:29;25.50;;;13.98;;
85093;SDS011;75432;49.056;12.004;2024-03-22T00:51:55;29.35;;;15.38;;
85093;SDS011;75432;49.056;12.004;2024-03-22T00:54:21;32.67;;;16.15;;
85093;SDS011;75432;49.056;12.004;2024-03-22T00:56:47;28.05;;;14.95;;
85093;SDS011;75432;49.056;12.004;2024-03-22T00:59:13;35.00;;;15.73;;
85093;SDS011;75432;49.056;12.004;2024-03-22T01:01:38;30.25;;;15.90;;
85093;SDS011;75432;49.056;12.004;2024-03-22T01:04:04;28.75;;;15.98;;
85093;SDS011;75432;49.056;12.004;2024-03-22T01:06:29;26.90;;;15.07;;
85093;SDS011;75432;49.056;12.004;2024-03-22T01:08:55;30.50;;;16.43;;
85093;SDS011;75432;49.056;12.004;2024-03-22T01:11:21;32.20;;;15.80;;
85093;SDS011;75432;49.056;12.004;2024-03-22T01:13:46;30.23;;;16.35;;
85093;SDS011;75432;49.056;12.004;2024-03-22T01:16:12;34.80;;;17.00;;
85093;SDS011;75432;49.056;12.004;2024-03-22T01:18:37;31.83;;;16.23;;
85093;SDS011;75432;49.056;12.004;2024-03-22T01:21:03;32.87;;;17.63;;
85093;SDS011;75432;49.056;12.004;2024-03-22T01:23:30;36.80;;;18.67;;
85093;SDS011;75432;49.056;12.004;2024-03-22T01:25:55;34.93;;;17.27;;
85093;SDS011;75432;49.056;12.004;2024-03-22T01:28:21;33.73;;;16.30;;
85093;SDS011;75432;49.056;12.004;2024-03-22T01:30:47;34.10;;;16.60;;
85093;SDS011;75432;49.056;12.004;2024-03-22T01:33:12;30.17;;;15.97;;
85093;SDS011;75432;49.056;12.004;2024-03-22T01:35:38;33.93;;;17.57;;
85093;SDS011;75432;49.056;12.004;2024-03-22T01:38:04;30.87;;;16.87;;
85093;SDS011;75432;49.056;12.004;2024-03-22T01:40:29;32.23;;;16.27;;
85093;SDS011;75432;49.056;12.004;2024-03-22T01:42:55;33.70;;;15.70;;
85093;SDS011;75432;49.056;12.004;2024-03-22T01:45:21;30.60;;;15.50;;
85093;SDS011;75432;49.056;12.004;2024-03-22T01:47:52;31.87;;;16.60;;
85093;SDS011;75432;49.056;12.004;2024-03-22T01:50:20;35.47;;;16.23;;
85093;SDS011;75432;49.056;12.004;2024-03-22T01:52:46;30.67;;;14.90;;
85093;SDS011;75432;49.056;12.004;2024-03-22T01:55:13;29.67;;;15.50;;
85093;SDS011;75432;49.056;12.004;2024-03-22T01:57:39;31.07;;;14.40;;
85093;SDS011;75432;49.056;12.004;2024-03-22T02:00:09;31.00;;;14.07;;
85093;SDS011;75432;49.056;12.004;2024-03-22T02:02:39;31.10;;;15.03;;
85093;SDS011;75432;49.056;12.004;2024-03-22T02:05:11;29.70;;;13.37;;
85093;SDS011;75432;49.056;12.004;2024-03-22T02:07:37;26.90;;;14.07;;
85093;SDS011;75432;49.056;12.004;2024-03-22T02:10:03;29.57;;;14.87;;
85093;SDS011;75432;49.056;12.004;2024-03-22T02:12:29;29.77;;;14.87;;
85093;SDS011;75432;49.056;12.004;2024-03-22T02:14:57;32.50;;;15.13;;
85093;SDS011;75432;49.056;12.004;2024-03-22T02:17:23;30.43;;;14.63;;
85093;SDS011;75432;49.056;12.004;2024-03-22T02:19:48;30.52;;;14.55;;
85093;SDS011;75432;49.056;12.004;2024-03-22T02:22:14;28.00;;;14.27;;
85093;SDS011;75432;49.056;12.004;2024-03-22T02:24:40;30.23;;;14.23;;
85093;SDS011;75432;49.056;12.004;2024-03-22T02:27:05;32.03;;;14.93;;
85093;SDS011;75432;49.056;12.004;2024-03-22T02:29:31;30.17;;;14.87;;
85093;SDS011;75432;49.056;12.004;2024-03-22T02:31:56;31.30;;;14.53;;
85093;SDS011;75432;49.056;12.004;2024-03-22T02:34:23;32.63;;;14.77;;
85093;SDS011;75432;49.056;12.004;2024-03-22T02:36:49;32.93;;;14.70;;
85093;SDS011;75432;49.056;12.004;2024-03-22T02:39:14;31.33;;;14.30;;
85093;SDS011;75432;49.056;12.004;2024-03-22T02:41:40;31.63;;;15.23;;
85093;SDS011;75432;49.056;12.004;2024-03-22T02:44:06;34.57;;;16.03;;
85093;SDS011;75432;49.056;12.004;2024-03-22T02:46:31;29.77;;;15.10;;
85093;SDS011;75432;49.056;12.004;2024-03-22T02:48:57;31.30;;;14.60;;
85093;SDS011;75432;49.056;12.004;2024-03-22T02:51:22;36.27;;;14.93;;
85093;SDS011;75432;49.056;12.004;2024-03-22T02:53:48;29.03;;;13.80;;
85093;SDS011;75432;49.056;12.004;2024-03-22T02:56:13;26.70;;;13.73;;
85093;SDS011;75432;49.056;12.004;2024-03-22T02:58:39;31.20;;;14.17;;
85093;SDS011;75432;49.056;12.004;2024-03-22T03:01:05;32.83;;;14.37;;
85093;SDS011;75432;49.056;12.004;2024-03-22T03:03:31;28.17;;;13.07;;
85093;SDS011;75432;49.056;12.004;2024-03-22T03:05:56;29.43;;;15.10;;
85093;SDS011;75432;49.056;12.004;2024-03-22T03:08:22;27.83;;;13.37;;
85093;SDS011;75432;49.056;12.004;2024-03-22T03:10:48;24.30;;;11.90;;
85093;SDS011;75432;49.056;12.004;2024-03-22T03:13:13;23.10;;;11.77;;
85093;SDS011;75432;49.056;12.004;2024-03-22T03:15:39;22.47;;;11.40;;
85093;SDS011;75432;49.056;12.004;2024-03-22T03:18:04;24.90;;;11.50;;
85093;SDS011;75432;49.056;12.004;2024-03-22T03:20:30;23.33;;;11.63;;
85093;SDS011;75432;49.056;12.004;2024-03-22T03:22:55;24.47;;;12.30;;
85093;SDS011;75432;49.056;12.004;2024-03-22T03:25:25;25.57;;;12.10;;
85093;SDS011;75432;49.056;12.004;2024-03-22T03:27:53;23.83;;;12.20;;
85093;SDS011;75432;49.056;12.004;2024-03-22T03:30:19;27.80;;;12.33;;
85093;SDS011;75432;49.056;12.004;2024-03-22T03:32:44;28.93;;;14.10;;
85093;SDS011;75432;49.056;12.004;2024-03-22T03:35:10;24.13;;;12.07;;
85093;SDS011;75432;49.056;12.004;2024-03-22T03:37:36;24.00;;;12.30;;
85093;SDS011;75432;49.056;12.004;2024-03-22T03:40:01;22.77;;;11.20;;
85093;SDS011;75432;49.056;12.004;2024-03-22T03:42:27;25.07;;;11.97;;
85093;SDS011;75432;49.056;12.004;2024-03-22T03:44:52;21.07;;;11.50;;
85093;SDS011;75432;49.056;12.004;2024-03-22T03:47:18;21.70;;;11.47;;
85093;SDS011;75432;49.056;12.004;2024-03-22T03:49:47;22.37;;;11.47;;
85093;SDS011;75432;49.056;12.004;2024-03-22T03:52:13;25.27;;;12.20;;
85093;SDS011;75432;49.056;12.004;2024-03-22T03:54:39;27.27;;;13.37;;
85093;SDS011;75432;49.056;12.004;2024-03-22T03:57:04;30.63;;;14.27;;
85093;SDS011;75432;49.056;12.004;2024-03-22T03:59:30;25.50;;;12.90;;
85093;SDS011;75432;49.056;12.004;2024-03-22T04:01:56;24.50;;;12.67;;
85093;SDS011;75432;49.056;12.004;2024-03-22T04:04:21;36.67;;;13.17;;
85093;SDS011;75432;49.056;12.004;2024-03-22T04:06:47;379.50;;;15.87;;
85093;SDS011;75432;49.056;12.004;2024-03-22T04:09:13;393.00;;;15.43;;
85093;SDS011;75432;49.056;12.004;2024-03-22T04:11:38;321.70;;;15.17;;
85093;SDS011;75432;49.056;12.004;2024-03-22T04:14:04;226.40;;;13.97;;
85093;SDS011;75432;49.056;12.004;2024-03-22T04:16:30;129.93;;;12.90;;
85093;SDS011;75432;49.056;12.004;2024-03-22T04:18:56;257.23;;;12.53;;
85093;SDS011;75432;49.056;12.004;2024-03-22T04:21:22;220.17;;;12.87;;
85093;SDS011;75432;49.056;12.004;2024-03-22T04:23:47;250.97;;;13.00;;
85093;SDS011;75432;49.056;12.004;2024-03-22T04:26:13;356.50;;;15.00;;
85093;SDS011;75432;49.056;12.004;2024-03-22T04:28:38;160.67;;;11.70;;
85093;SDS011;75432;49.056;12.004;2024-03-22T04:31:05;219.00;;;11.53;;
85093;SDS011;75432;49.056;12.004;2024-03-22T04:33:34;127.30;;;10.97;;
85093;SDS011;75432;49.056;12.004;2024-03-22T04:36:00;71.37;;;10.27;;
85093;SDS011;75432;49.056;12.004;2024-03-22T04:38:27;60.23;;;9.20;;
85093;SDS011;75432;49.056;12.004;2024-03-22T04:40:53;48.30;;;9.07;;
85093;SDS011;75432;49.056;12.004;2024-03-22T04:43:19;92.23;;;8.13;;
85093;SDS011;75432;49.056;12.004;2024-03-22T04:45:46;105.50;;;8.90;;
85093;SDS011;75432;49.056;12.004;2024-03-22T04:48:13;22.83;;;7.90;;
85093;SDS011;75432;49.056;12.004;2024-03-22T04:50:40;23.80;;;7.30;;
85093;SDS011;75432;49.056;12.004;2024-03-22T04:53:06;32.70;;;7.20;;
85093;SDS011;75432;49.056;12.004;2024-03-22T04:55:32;9.77;;;6.93;;
85093;SDS011;75432;49.056;12.004;2024-03-22T04:58:00;10.47;;;7.70;;
85093;SDS011;75432;49.056;12.004;2024-03-22T05:00:27;12.73;;;7.90;;
85093;SDS011;75432;49.056;12.004;2024-03-22T05:02:53;15.20;;;8.60;;
85093;SDS011;75432;49.056;12.004;2024-03-22T05:05:19;17.80;;;9.00;;
85093;SDS011;75432;49.056;12.004;2024-03-22T05:07:45;17.93;;;8.80;;
85093;SDS011;75432;49.056;12.004;2024-03-22T05:10:11;13.27;;;8.27;;
85093;SDS011;75432;49.056;12.004;2024-03-22T05:12:37;11.23;;;8.30;;
85093;SDS011;75432;49.056;12.004;2024-03-22T05:15:03;30.33;;;8.30;;
85093;SDS011;75432;49.056;12.004;2024-03-22T05:17:29;20.87;;;7.77;;
85093;SDS011;75432;49.056;12.004;2024-03-22T05:19:57;25.60;;;7.17;;
85093;SDS011;75432;49.056;12.004;2024-03-22T05:22:23;37.97;;;7.97;;
85093;SDS011;75432;49.056;12.004;2024-03-22T05:24:49;18.20;;;7.40;;
85093;SDS011;75432;49.056;12.004;2024-03-22T05:27:14;19.33;;;6.90;;
85093;SDS011;75432;49.056;12.004;2024-03-22T05:29:40;16.40;;;7.00;;
85093;SDS011;75432;49.056;12.004;2024-03-22T05:32:06;21.50;;;7.07;;
85093;SDS011;75432;49.056;12.004;2024-03-22T05:34:31;9.87;;;6.00;;
85093;SDS011;75432;49.056;12.004;2024-03-22T05:36:57;8.07;;;5.97;;
85093;SDS011;75432;49.056;12.004;2024-03-22T05:39:22;7.53;;;5.83;;
85093;SDS011;75432;49.056;12.004;2024-03-22T05:41:48;13.27;;;6.63;;
85093;SDS011;75432;49.056;12.004;2024-03-22T05:44:14;9.70;;;5.30;;
85093;SDS011;75432;49.056;12.004;2024-03-22T05:46:39;13.73;;;5.80;;
85093;SDS011;75432;49.056;12.004;2024-03-22T05:49:05;8.17;;;5.57;;
85093;SDS011;75432;49.056;12.004;2024-03-22T05:51:30;9.57;;;4.57;;
85093;SDS011;75432;49.056;12.004;2024-03-22T05:53:56;6.90;;;5.10;;
85093;SDS011;75432;49.056;12.004;2024-03-22T05:56:22;4.53;;;4.07;;
85093;SDS011;75432;49.056;12.004;2024-03-22T05:58:47;34.63;;;6.23;;
85093;SDS011;75432;49.056;12.004;2024-03-22T06:01:13;50.23;;;6.23;;
85093;SDS011;75432;49.056;12.004;2024-03-22T06:03:39;197.30;;;9.67;;
85093;SDS011;75432;49.056;12.004;2024-03-22T06:06:04;149.23;;;9.40;;
85093;SDS011;75432;49.056;12.004;2024-03-22T06:08:30;54.07;;;7.00;;
85093;SDS011;75432;49.056;12.004;2024-03-22T06:11:00;251.90;;;10.70;;
85093;SDS011;75432;49.056;12.004;2024-03-22T06:13:26;197.63;;;10.13;;
85093;SDS011;75432;49.056;12.004;2024-03-22T06:15:52;53.63;;;8.10;;
85093;SDS011;75432;49.056;12.004;2024-03-22T06:18:17;20.70;;;8.90;;
85093;SDS011;75432;49.056;12.004;2024-03-22T06:20:43;339.93;;;14.47;;
85093;SDS011;75432;49.056;12.004;2024-03-22T06:23:09;364.10;;;14.57;;
85093;SDS011;75432;49.056;12.004;2024-03-22T06:25:35;159.27;;;13.90;;
85093;SDS011;75432;49.056;12.004;2024-03-22T06:28:01;393.57;;;15.70;;
85093;SDS011;75432;49.056;12.004;2024-03-22T06:30:26;144.30;;;12.60;;
85093;SDS011;75432;49.056;12.004;2024-03-22T06:32:56;124.23;;;13.23;;
85093;SDS011;75432;49.056;12.004;2024-03-22T06:35:21;286.37;;;13.67;;
85093;SDS011;75432;49.056;12.004;2024-03-22T06:37:47;278.23;;;15.00;;
85093;SDS011;75432;49.056;12.004;2024-03-22T06:40:14;393.37;;;16.20;;
85093;SDS011;75432;49.056;12.004;2024-03-22T06:42:40;322.53;;;15.70;;
85093;SDS011;75432;49.056;12.004;2024-03-22T06:45:06;348.17;;;15.80;;
85093;SDS011;75432;49.056;12.004;2024-03-22T06:47:32;489.80;;;17.90;;
85093;SDS011;75432;49.056;12.004;2024-03-22T06:49:57;450.70;;;18.40;;
85093;SDS011;75432;49.056;12.004;2024-03-22T06:52:23;198.47;;;14.30;;
85093;SDS011;75432;49.056;12.004;2024-03-22T06:54:49;447.10;;;17.27;;
85093;SDS011;75432;49.056;12.004;2024-03-22T06:57:14;148.03;;;11.60;;
85093;SDS011;75432;49.056;12.004;2024-03-22T06:59:40;367.00;;;18.00;;
85093;SDS011;75432;49.056;12.004;2024-03-22T07:02:05;548.77;;;21.47;;
85093;SDS011;75432;49.056;12.004;2024-03-22T07:04:31;114.43;;;14.80;;
85093;SDS011;75432;49.056;12.004;2024-03-22T07:06:56;175.97;;;16.20;;
85093;SDS011;75432;49.056;12.004;2024-03-22T07:09:22;932.67;;;32.90;;
85093;SDS011;75432;49.056;12.004;2024-03-22T07:11:48;340.70;;;19.90;;
85093;SDS011;75432;49.056;12.004;2024-03-22T07:14:13;165.53;;;17.27;;
85093;SDS011;75432;49.056;12.004;2024-03-22T07:16:39;50.30;;;15.47;;
85093;SDS011;75432;49.056;12.004;2024-03-22T07:19:04;137.07;;;15.37;;
85093;SDS011;75432;49.056;12.004;2024-03-22T07:21:31;116.33;;;15.30;;
85093;SDS011;75432;49.056;12.004;2024-03-22T07:23:56;87.60;;;15.83;;
85093;SDS011;75432;49.056;12.004;2024-03-22T07:26:22;347.33;;;20.80;;
85093;SDS011;75432;49.056;12.004;2024-03-22T07:28:48;216.87;;;18.47;;
85093;SDS011;75432;49.056;12.004;2024-03-22T07:31:13;442.83;;;22.40;;
85093;SDS011;75432;49.056;12.004;2024-03-22T07:33:39;324.73;;;20.80;;
85093;SDS011;75432;49.056;12.004;2024-03-22T07:36:05;56.47;;;19.00;;
85093;SDS011;75432;49.056;12.004;2024-03-22T07:38:31;416.07;;;25.90;;
85093;SDS011;75432;49.056;12.004;2024-03-22T07:40:57;187.13;;;20.03;;
85093;SDS011;75432;49.056;12.004;2024-03-22T07:43:22;58.87;;;18.37;;
85093;SDS011;75432;49.056;12.004;2024-03-22T07:45:48;414.77;;;25.80;;
85093;SDS011;75432;49.056;12.004;2024-03-22T07:48:14;262.20;;;23.63;;
85093;SDS011;75432;49.056;12.004;2024-03-22T07:50:39;232.37;;;23.43;;
85093;SDS011;75432;49.056;12.004;2024-03-22T07:53:05;416.97;;;27.17;;
85093;SDS011;75432;49.056;12.004;2024-03-22T07:55:31;98.00;;;24.33;;
85093;SDS011;75432;49.056;12.004;2024-03-22T07:57:56;135.07;;;27.37;;
85093;SDS011;75432;49.056;12.004;2024-03-22T08:00:23;89.80;;;26.93;;
85093;SDS011;75432;49.056;12.004;2024-03-22T08:02:52;65.90;;;24.63;;
85093;SDS011;75432;49.056;12.004;2024-03-22T08:05:18;62.37;;;24.47;;
85093;SDS011;75432;49.056;12.004;2024-03-22T08:07:44;150.30;;;27.73;;
85093;SDS011;75432;49.056;12.004;2024-03-22T08:10:10;200.47;;;29.37;;
85093;SDS011;75432;49.056;12.004;2024-03-22T08:12:36;91.07;;;27.43;;
85093;SDS011;75432;49.056;12.004;2024-03-22T08:15:02;190.47;;;28.73;;
85093;SDS011;75432;49.056;12.004;2024-03-22T08:17:28;231.67;;;26.70;;
85093;SDS011;75432;49.056;12.004;2024-03-22T08:19:53;106.17;;;27.70;;
85093;SDS011;75432;49.056;12.004;2024-03-22T08:22:19;114.00;;;26.97;;
85093;SDS011;75432;49.056;12.004;2024-03-22T08:24:44;71.77;;;25.73;;
85093;SDS011;75432;49.056;12.004;2024-03-22T08:27:10;50.17;;;23.77;;
85093;SDS011;75432;49.056;12.004;2024-03-22T08:29:37;45.23;;;24.07;;
85093;SDS011;75432;49.056;12.004;2024-03-22T08:32:03;50.17;;;23.63;;
85093;SDS011;75432;49.056;12.004;2024-03-22T08:34:30;45.60;;;22.77;;
85093;SDS011;75432;49.056;12.004;2024-03-22T08:36:57;45.40;;;23.77;;
85093;SDS011;75432;49.056;12.004;2024-03-22T08:39:23;38.23;;;20.57;;
85093;SDS011;75432;49.056;12.004;2024-03-22T08:41:49;42.83;;;22.50;;
85093;SDS011;75432;49.056;12.004;2024-03-22T08:44:16;40.23;;;22.33;;
85093;SDS011;75432;49.056;12.004;2024-03-22T08:46:42;37.67;;;20.40;;
85093;SDS011;75432;49.056;12.004;2024-03-22T08:49:07;39.13;;;22.17;;
85093;SDS011;75432;49.056;12.004;2024-03-22T08:51:33;38.27;;;20.77;;
85093;SDS011;75432;49.056;12.004;2024-03-22T08:53:59;36.33;;;20.03;;
85093;SDS011;75432;49.056;12.004;2024-03-22T08:56:26;38.70;;;22.13;;
85093;SDS011;75432;49.056;12.004;2024-03-22T08:58:52;37.73;;;21.23;;
85093;SDS011;75432;49.056;12.004;2024-03-22T09:01:17;38.35;;;21.92;;
85093;SDS011;75432;49.056;12.004;2024-03-22T09:03:43;33.50;;;18.60;;
85093;SDS011;75432;49.056;12.004;2024-03-22T09:06:12;34.40;;;18.63;;
85093;SDS011;75432;49.056;12.004;2024-03-22T09:08:38;33.83;;;18.33;;
85093;SDS011;75432;49.056;12.004;2024-03-22T09:11:03;34.90;;;20.87;;
85093;SDS011;75432;49.056;12.004;2024-03-22T09:13:30;29.75;;;17.83;;
85093;SDS011;75432;49.056;12.004;2024-03-22T09:15:56;30.52;;;18.52;;
85093;SDS011;75432;49.056;12.004;2024-03-22T09:18:22;30.95;;;17.45;;
85093;SDS011;75432;49.056;12.004;2024-03-22T09:20:48;30.65;;;18.55;;
85093;SDS011;75432;49.056;12.004;2024-03-22T09:23:14;28.50;;;16.90;;
85093;SDS011;75432;49.056;12.004;2024-03-22T09:25:39;30.35;;;17.58;;
85093;SDS011;75432;49.056;12.004;2024-03-22T09:28:05;28.58;;;16.90;;
85093;SDS011;75432;49.056;12.004;2024-03-22T09:30:31;29.00;;;17.40;;
85093;SDS011;75432;49.056;12.004;2024-03-22T09:32:56;35.90;;;19.73;;
85093;SDS011;75432;49.056;12.004;2024-03-22T09:35:22;32.42;;;19.58;;
85093;SDS011;75432;49.056;12.004;2024-03-22T09:37:47;31.10;;;17.77;;
85093;SDS011;75432;49.056;12.004;2024-03-22T09:40:13;34.25;;;18.98;;
85093;SDS011;75432;49.056;12.004;2024-03-22T09:42:38;37.20;;;19.17;;
85093;SDS011;75432;49.056;12.004;2024-03-22T09:45:08;38.08;;;20.15;;
85093;SDS011;75432;49.056;12.004;2024-03-22T09:47:34;33.40;;;19.83;;
85093;SDS011;75432;49.056;12.004;2024-03-22T09:50:01;36.13;;;19.73;;
85093;SDS011;75432;49.056;12.004;2024-03-22T09:52:28;39.03;;;19.83;;
85093;SDS011;75432;49.056;12.004;2024-03-22T09:54:53;35.92;;;21.48;;
85093;SDS011;75432;49.056;12.004;2024-03-22T09:57:20;35.75;;;20.17;;
85093;SDS011;75432;49.056;12.004;2024-03-22T09:59:46;39.40;;;21.10;;
85093;SDS011;75432;49.056;12.004;2024-03-22T10:02:12;38.92;;;22.20;;
85093;SDS011;75432;49.056;12.004;2024-03-22T10:04:41;38.42;;;21.08;;
85093;SDS011;75432;49.056;12.004;2024-03-22T10:07:07;46.15;;;24.08;;
85093;SDS011;75432;49.056;12.004;2024-03-22T10:09:34;38.03;;;22.00;;
85093;SDS011;75432;49.056;12.004;2024-03-22T10:12:00;44.28;;;21.77;;
85093;SDS011;75432;49.056;12.004;2024-03-22T10:14:26;39.10;;;23.23;;
85093;SDS011;75432;49.056;12.004;2024-03-22T10:16:52;45.85;;;23.35;;
85093;SDS011;75432;49.056;12.004;2024-03-22T10:19:19;41.47;;;24.13;;
85093;SDS011;75432;49.056;12.004;2024-03-22T10:21:46;42.78;;;24.00;;
85093;SDS011;75432;49.056;12.004;2024-03-22T10:24:13;48.03;;;26.20;;
85093;SDS011;75432;49.056;12.004;2024-03-22T10:26:39;41.10;;;23.27;;
85093;SDS011;75432;49.056;12.004;2024-03-22T10:29:05;43.25;;;23.23;;
85093;SDS011;75432;49.056;12.004;2024-03-22T10:31:33;37.65;;;22.30;;
85093;SDS011;75432;49.056;12.004;2024-03-22T10:34:00;48.40;;;26.58;;
85093;SDS011;75432;49.056;12.004;2024-03-22T10:36:29;40.92;;;23.63;;
85093;SDS011;75432;49.056;12.004;2024-03-22T10:38:56;42.60;;;24.67;;
85093;SDS011;75432;49.056;12.004;2024-03-22T10:41:23;45.20;;;24.88;;
85093;SDS011;75432;49.056;12.004;2024-03-22T10:43:49;44.95;;;25.02;;
85093;SDS011;75432;49.056;12.004;2024-03-22T10:46:15;47.10;;;24.85;;
85093;SDS011;75432;49.056;12.004;2024-03-22T10:48:45;43.97;;;24.40;;
85093;SDS011;75432;49.056;12.004;2024-03-22T10:51:10;46.03;;;25.35;;
85093;SDS011;75432;49.056;12.004;2024-03-22T10:53:38;40.85;;;25.27;;
85093;SDS011;75432;49.056;12.004;2024-03-22T10:56:04;46.75;;;25.45;;
85093;SDS011;75432;49.056;12.004;2024-03-22T10:58:31;39.25;;;23.05;;
85093;SDS011;75432;49.056;12.004;2024-03-22T11:00:57;44.45;;;24.55;;
85093;SDS011;75432;49.056;12.004;2024-03-22T11:03:26;41.72;;;24.65;;
85093;SDS011;75432;49.056;12.004;2024-03-22T11:05:54;45.00;;;25.90;;
85093;SDS011;75432;49.056;12.004;2024-03-22T11:08:25;40.25;;;24.50;;
85093;SDS011;75432;49.056;12.004;2024-03-22T11:10:52;42.85;;;24.98;;
85093;SDS011;75432;49.056;12.004;2024-03-22T11:13:20;46.58;;;24.73;;
85093;SDS011;75432;49.056;12.004;2024-03-22T11:15:49;40.47;;;24.48;;
85093;SDS011;75432;49.056;12.004;2024-03-22T11:18:16;48.97;;;26.95;;
85093;SDS011;75432;49.056;12.004;2024-03-22T11:20:42;41.47;;;25.52;;
85093;SDS011;75432;49.056;12.004;2024-03-22T11:23:11;47.15;;;26.60;;
85093;SDS011;75432;49.056;12.004;2024-03-22T11:25:37;47.08;;;26.15;;
85093;SDS011;75432;49.056;12.004;2024-03-22T11:28:02;45.08;;;25.60;;
85093;SDS011;75432;49.056;12.004;2024-03-22T11:30:29;44.15;;;25.48;;
85093;SDS011;75432;49.056;12.004;2024-03-22T11:32:55;44.83;;;26.52;;
85093;SDS011;75432;49.056;12.004;2024-03-22T11:35:21;45.38;;;26.50;;
85093;SDS011;75432;49.056;12.004;2024-03-22T11:37:47;49.28;;;28.30;;
85093;SDS011;75432;49.056;12.004;2024-03-22T11:40:12;44.53;;;26.55;;
85093;SDS011;75432;49.056;12.004;2024-03-22T11:42:39;43.50;;;26.67;;
85093;SDS011;75432;49.056;12.004;2024-03-22T11:45:08;39.22;;;23.98;;
85093;SDS011;75432;49.056;12.004;2024-03-22T11:47:35;46.85;;;26.73;;
85093;SDS011;75432;49.056;12.004;2024-03-22T11:50:01;43.22;;;25.65;;
85093;SDS011;75432;49.056;12.004;2024-03-22T11:52:27;39.60;;;24.33;;
85093;SDS011;75432;49.056;12.004;2024-03-22T11:54:53;38.45;;;22.90;;
85093;SDS011;75432;49.056;12.004;2024-03-22T11:57:20;38.90;;;23.63;;
85093;SDS011;75432;49.056;12.004;2024-03-22T11:59:46;41.72;;;24.65;;
85093;SDS011;75432;49.056;12.004;2024-03-22T12:02:11;35.83;;;21.85;;
85093;SDS011;75432;49.056;12.004;2024-03-22T12:04:47;35.60;;;20.65;;
85093;SDS011;75432;49.056;12.004;2024-03-22T12:07:13;35.55;;;22.13;;
85093;SDS011;75432;49.056;12.004;2024-03-22T12:09:40;37.67;;;22.58;;
85093;SDS011;75432;49.056;12.004;2024-03-22T12:12:07;36.30;;;20.52;;
85093;SDS011;75432;49.056;12.004;2024-03-22T12:14:34;33.70;;;21.30;;
85093;SDS011;75432;49.056;12.004;2024-03-22T12:17:01;36.60;;;22.75;;
85093;SDS011;75432;49.056;12.004;2024-03-22T12:19:27;38.10;;;22.48;;
85093;SDS011;75432;49.056;12.004;2024-03-22T12:21:53;34.88;;;20.92;;
85093;SDS011;75432;49.056;12.004;2024-03-22T12:24:19;36.80;;;22.52;;
85093;SDS011;75432;49.056;12.004;2024-03-22T12:26:45;32.47;;;19.58;;
85093;SDS011;75432;49.056;12.004;2024-03-22T12:29:12;33.50;;;20.38;;
85093;SDS011;75432;49.056;12.004;2024-03-22T12:31:38;34.10;;;22.23;;
85093;SDS011;75432;49.056;12.004;2024-03-22T12:34:04;37.78;;;23.30;;
85093;SDS011;75432;49.056;12.004;2024-03-22T12:36:29;31.85;;;20.17;;
85093;SDS011;75432;49.056;12.004;2024-03-22T12:38:55;33.65;;;19.95;;
85093;SDS011;75432;49.056;12.004;2024-03-22T12:41:20;33.17;;;20.25;;
85093;SDS011;75432;49.056;12.004;2024-03-22T12:43:46;34.22;;;20.17;;
85093;SDS011;75432;49.056;12.004;2024-03-22T12:46:11;29.48;;;18.60;;
85093;SDS011;75432;49.056;12.004;2024-03-22T12:48:37;24.67;;;16.35;;
85093;SDS011;75432;49.056;12.004;2024-03-22T12:51:03;30.63;;;18.73;;
85093;SDS011;75432;49.056;12.004;2024-03-22T12:53:28;30.42;;;18.25;;
85093;SDS011;75432;49.056;12.004;2024-03-22T12:55:54;29.52;;;17.60;;
85093;SDS011;75432;49.056;12.004;2024-03-22T12:58:19;31.17;;;20.08;;
85093;SDS011;75432;49.056;12.004;2024-03-22T13:00:45;32.80;;;19.77;;
85093;SDS011;75432;49.056;12.004;2024-03-22T13:03:12;31.95;;;18.58;;
85093;SDS011;75432;49.056;12.004;2024-03-22T13:05:40;28.42;;;16.80;;
85093;SDS011;75432;49.056;12.004;2024-03-22T13:08:05;27.83;;;16.92;;
85093;SDS011;75432;49.056;12.004;2024-03-22T13:10:31;28.42;;;17.80;;
85093;SDS011;75432;49.056;12.004;2024-03-22T13:12:57;29.85;;;18.27;;
85093;SDS011;75432;49.056;12.004;2024-03-22T13:15:23;29.45;;;18.25;;
85093;SDS011;75432;49.056;12.004;2024-03-22T13:17:48;28.88;;;18.70;;
85093;SDS011;75432;49.056;12.004;2024-03-22T13:20:14;28.13;;;18.23;;
85093;SDS011;75432;49.056;12.004;2024-03-22T13:22:40;27.65;;;18.45;;
85093;SDS011;75432;49.056;12.004;2024-03-22T13:25:06;29.80;;;20.05;;
85093;SDS011;75432;49.056;12.004;2024-03-22T13:27:34;30.48;;;18.02;;
85093;SDS011;75432;49.056;12.004;2024-03-22T13:30:00;31.55;;;20.77;;
85093;SDS011;75432;49.056;12.004;2024-03-22T13:32:26;28.67;;;18.42;;
85093;SDS011;75432;49.056;12.004;2024-03-22T13:34:52;28.65;;;18.00;;
85093;SDS011;75432;49.056;12.004;2024-03-22T13:37:18;27.63;;;17.58;;
85093;SDS011;75432;49.056;12.004;2024-03-22T13:39:47;23.65;;;14.77;;
85093;SDS011;75432;49.056;12.004;2024-03-22T13:42:16;22.65;;;13.45;;
85093;SDS011;75432;49.056;12.004;2024-03-22T13:44:41;25.70;;;16.80;;
85093;SDS011;75432;49.056;12.004;2024-03-22T13:47:08;27.10;;;16.08;;
85093;SDS011;75432;49.056;12.004;2024-03-22T13:49:33;17.75;;;11.52;;
85093;SDS011;75432;49.056;12.004;2024-03-22T13:51:59;17.60;;;10.82;;
85093;SDS011;75432;49.056;12.004;2024-03-22T13:54:25;15.65;;;10.10;;
85093;SDS011;75432;49.056;12.004;2024-03-22T13:56:50;21.27;;;13.45;;
85093;SDS011;75432;49.056;12.004;2024-03-22T13:59:16;21.73;;;13.18;;
85093;SDS011;75432;49.056;12.004;2024-03-22T14:01:42;21.67;;;13.60;;